首页
METAR-TAF:

METAR-TAF

机场 :

因纽维克, 西北特區, 加拿大

纬度: 68-18N, 经度: 133-29W, 海拔: 59米

当前天气观测

该预报发布于1小时和11分钟前的04:00 UTC
风速3节,风向东转东北
温度 -19°C
湿度 84%
气压 999 hPa
能見度: 24.1公里
多云层高于17000英尺

METAR: CYEV 190400Z 07003KT 15SM BKN170 M19/M21 A2951 RMK AS6 PRESFR SLP004

时间: 22:11 (05:11 UTC)

预报

该预报发布于4小时和33分钟前的00:38 UTC
预报有效从19日的 01点(UTC)到 19日的 13点(UTC)
风速8节,风向
能見度: 10公里
散云层高于15000英尺
从 19日的 0600点(UTC)
风速5节,风向东转东北
能見度: 10公里
散云层高于2000英尺
多云层高于6000英尺
小雪
短暂存在
从 19日的 06点(UTC)到 19日的 13点(UTC)
能見度: 3.2公里
多云层高于2000英尺
阴天层高于6000英尺
小雪

TAF: CYEV 190038Z 1901/1913 08008KT P6SM SCT150 FM190600 07005KT P6SM -SN SCT020 BKN060 TEMPO 1906/1913 2SM -SN BKN020 OVC060 RMK NXT FCST BY 190700Z

超过4000个机场的气象观测和天气预报(METAR&TAF报告)。

可查询的气象台以黄色和红色小点在地图上表示。

将鼠标移到小点上方,可查看气象台名称。

然后点击查看天气观测和预报。

如需切换地图:点击带黑十字的绿色按钮放大地图;点击带横线的绿色按钮缩小地图;或者点击绿色箭头查看邻近地区的地图。


METAR-TAF: